sensor_id;sensor_type;location;lat;lon;timestamp;temperature;humidity
4399;DHT22;2213;49.720;7.296;2023-02-15T00:01:55;0.50;99.90
4399;DHT22;2213;49.720;7.296;2023-02-15T00:04:26;0.60;99.90
4399;DHT22;2213;49.720;7.296;2023-02-15T00:07:14;0.60;99.90
4399;DHT22;2213;49.720;7.296;2023-02-15T00:09:45;0.60;99.90
4399;DHT22;2213;49.720;7.296;2023-02-15T00:12:15;0.60;99.90
4399;DHT22;2213;49.720;7.296;2023-02-15T00:14:47;0.50;99.90
4399;DHT22;2213;49.720;7.296;2023-02-15T00:17:17;0.50;99.90
4399;DHT22;2213;49.720;7.296;2023-02-15T00:19:47;0.60;99.90
4399;DHT22;2213;49.720;7.296;2023-02-15T00:22:17;0.60;99.90
4399;DHT22;2213;49.720;7.296;2023-02-15T00:24:48;0.60;99.90
4399;DHT22;2213;49.720;7.296;2023-02-15T00:27:18;0.60;99.90
4399;DHT22;2213;49.720;7.296;2023-02-15T00:29:50;0.50;99.90
4399;DHT22;2213;49.720;7.296;2023-02-15T00:32:21;0.40;99.90
4399;DHT22;2213;49.720;7.296;2023-02-15T00:34:50;0.50;99.90
4399;DHT22;2213;49.720;7.296;2023-02-15T00:37:20;0.50;99.90
4399;DHT22;2213;49.720;7.296;2023-02-15T00:39:50;0.50;99.90
4399;DHT22;2213;49.720;7.296;2023-02-15T00:42:21;0.40;99.90
4399;DHT22;2213;49.720;7.296;2023-02-15T00:44:51;0.30;99.90
4399;DHT22;2213;49.720;7.296;2023-02-15T00:47:21;0.30;99.90
4399;DHT22;2213;49.720;7.296;2023-02-15T00:49:52;0.30;99.90
4399;DHT22;2213;49.720;7.296;2023-02-15T00:52:22;0.30;99.90
4399;DHT22;2213;49.720;7.296;2023-02-15T00:54:52;0.30;99.90
4399;DHT22;2213;49.720;7.296;2023-02-15T00:57:22;0.50;99.90
4399;DHT22;2213;49.720;7.296;2023-02-15T00:59:51;0.40;99.90
4399;DHT22;2213;49.720;7.296;2023-02-15T01:02:21;0.40;99.90
4399;DHT22;2213;49.720;7.296;2023-02-15T01:04:50;0.30;99.90
4399;DHT22;2213;49.720;7.296;2023-02-15T01:07:19;0.40;99.90
4399;DHT22;2213;49.720;7.296;2023-02-15T01:09:48;0.40;99.90
4399;DHT22;2213;49.720;7.296;2023-02-15T01:12:18;0.30;99.90
4399;DHT22;2213;49.720;7.296;2023-02-15T01:14:48;0.20;99.90
4399;DHT22;2213;49.720;7.296;2023-02-15T01:17:20;0.20;99.90
4399;DHT22;2213;49.720;7.296;2023-02-15T01:19:50;0.30;99.90
4399;DHT22;2213;49.720;7.296;2023-02-15T01:22:19;0.40;99.90
4399;DHT22;2213;49.720;7.296;2023-02-15T01:24:49;0.30;99.90
4399;DHT22;2213;49.720;7.296;2023-02-15T01:27:20;0.20;99.90
4399;DHT22;2213;49.720;7.296;2023-02-15T01:29:49;0.30;99.90
4399;DHT22;2213;49.720;7.296;2023-02-15T01:32:20;0.10;99.90
4399;DHT22;2213;49.720;7.296;2023-02-15T01:34:51;0.20;99.90
4399;DHT22;2213;49.720;7.296;2023-02-15T01:37:20;0.20;99.90
4399;DHT22;2213;49.720;7.296;2023-02-15T01:39:50;0.20;99.90
4399;DHT22;2213;49.720;7.296;2023-02-15T01:42:21;0.20;99.90
4399;DHT22;2213;49.720;7.296;2023-02-15T01:44:55;0.20;99.90
4399;DHT22;2213;49.720;7.296;2023-02-15T01:47:33;0.00;99.90
4399;DHT22;2213;49.720;7.296;2023-02-15T01:50:10;0.10;99.90
4399;DHT22;2213;49.720;7.296;2023-02-15T01:52:47;0.20;99.90
4399;DHT22;2213;49.720;7.296;2023-02-15T01:55:22;0.00;99.90
4399;DHT22;2213;49.720;7.296;2023-02-15T01:57:52;0.20;99.90
4399;DHT22;2213;49.720;7.296;2023-02-15T02:00:23;0.30;99.90
4399;DHT22;2213;49.720;7.296;2023-02-15T02:02:55;0.30;99.90
4399;DHT22;2213;49.720;7.296;2023-02-15T02:05:25;0.30;99.90
4399;DHT22;2213;49.720;7.296;2023-02-15T02:07:57;0.20;99.90
4399;DHT22;2213;49.720;7.296;2023-02-15T02:10:30;0.20;99.90
4399;DHT22;2213;49.720;7.296;2023-02-15T02:13:03;0.20;99.90
4399;DHT22;2213;49.720;7.296;2023-02-15T02:15:47;0.10;99.90
4399;DHT22;2213;49.720;7.296;2023-02-15T02:18:35;0.10;99.90
4399;DHT22;2213;49.720;7.296;2023-02-15T02:21:40;0.10;99.90
4399;DHT22;2213;49.720;7.296;2023-02-15T02:28:22;0.10;99.90
4399;DHT22;2213;49.720;7.296;2023-02-15T02:34:28;0.20;99.90
4399;DHT22;2213;49.720;7.296;2023-02-15T02:37:08;0.10;99.90
4399;DHT22;2213;49.720;7.296;2023-02-15T02:39:49;0.20;99.90
4399;DHT22;2213;49.720;7.296;2023-02-15T02:42:29;0.20;99.90
4399;DHT22;2213;49.720;7.296;2023-02-15T02:45:07;0.20;99.90
4399;DHT22;2213;49.720;7.296;2023-02-15T02:47:45;0.30;99.90
4399;DHT22;2213;49.720;7.296;2023-02-15T02:50:26;0.20;99.90
4399;DHT22;2213;49.720;7.296;2023-02-15T02:52:58;0.20;99.90
4399;DHT22;2213;49.720;7.296;2023-02-15T02:55:33;0.20;99.90
4399;DHT22;2213;49.720;7.296;2023-02-15T02:58:08;0.20;99.90
4399;DHT22;2213;49.720;7.296;2023-02-15T03:00:46;0.00;99.90
4399;DHT22;2213;49.720;7.296;2023-02-15T03:03:25;0.00;99.90
4399;DHT22;2213;49.720;7.296;2023-02-15T03:06:01;0.00;99.90
4399;DHT22;2213;49.720;7.296;2023-02-15T03:08:37;0.00;99.90
4399;DHT22;2213;49.720;7.296;2023-02-15T03:11:11;0.00;99.90
4399;DHT22;2213;49.720;7.296;2023-02-15T03:13:41;-0.10;99.90
4399;DHT22;2213;49.720;7.296;2023-02-15T03:16:13;0.00;99.90
4399;DHT22;2213;49.720;7.296;2023-02-15T03:18:58;-0.10;99.90
4399;DHT22;2213;49.720;7.296;2023-02-15T03:21:35;-0.10;99.90
4399;DHT22;2213;49.720;7.296;2023-02-15T03:24:10;0.10;99.90
4399;DHT22;2213;49.720;7.296;2023-02-15T03:26:47;0.00;99.90
4399;DHT22;2213;49.720;7.296;2023-02-15T03:29:24;0.00;99.90
4399;DHT22;2213;49.720;7.296;2023-02-15T03:32:02;0.00;99.90
4399;DHT22;2213;49.720;7.296;2023-02-15T03:34:35;0.00;99.90
4399;DHT22;2213;49.720;7.296;2023-02-15T03:37:09;0.00;99.90
4399;DHT22;2213;49.720;7.296;2023-02-15T03:39:46;0.00;99.90
4399;DHT22;2213;49.720;7.296;2023-02-15T03:42:24;0.10;99.90
4399;DHT22;2213;49.720;7.296;2023-02-15T03:44:59;0.10;99.90
4399;DHT22;2213;49.720;7.296;2023-02-15T03:47:35;0.10;99.90
4399;DHT22;2213;49.720;7.296;2023-02-15T03:50:11;0.00;99.90
4399;DHT22;2213;49.720;7.296;2023-02-15T03:53:01;0.10;99.90
4399;DHT22;2213;49.720;7.296;2023-02-15T03:55:34;0.10;99.90
4399;DHT22;2213;49.720;7.296;2023-02-15T03:58:04;0.00;99.90
4399;DHT22;2213;49.720;7.296;2023-02-15T04:00:56;-0.10;99.90
4399;DHT22;2213;49.720;7.296;2023-02-15T04:03:55;-0.10;99.90
4399;DHT22;2213;49.720;7.296;2023-02-15T04:06:28;-0.10;99.90
4399;DHT22;2213;49.720;7.296;2023-02-15T04:08:59;0.00;99.90
4399;DHT22;2213;49.720;7.296;2023-02-15T04:11:46;0.10;99.90
4399;DHT22;2213;49.720;7.296;2023-02-15T04:14:16;0.10;99.90
4399;DHT22;2213;49.720;7.296;2023-02-15T04:17:05;0.00;99.90
4399;DHT22;2213;49.720;7.296;2023-02-15T04:19:35;-0.10;99.90
4399;DHT22;2213;49.720;7.296;2023-02-15T04:22:22;-0.10;99.90
4399;DHT22;2213;49.720;7.296;2023-02-15T04:25:14;0.00;99.90
4399;DHT22;2213;49.720;7.296;2023-02-15T04:27:46;-0.20;99.90
4399;DHT22;2213;49.720;7.296;2023-02-15T04:30:19;-0.20;99.90
4399;DHT22;2213;49.720;7.296;2023-02-15T04:32:50;-0.30;99.90
4399;DHT22;2213;49.720;7.296;2023-02-15T04:35:19;-0.30;99.90
4399;DHT22;2213;49.720;7.296;2023-02-15T04:37:50;-0.30;99.90
4399;DHT22;2213;49.720;7.296;2023-02-15T04:40:21;-0.20;99.90
4399;DHT22;2213;49.720;7.296;2023-02-15T04:42:52;-0.20;99.90
4399;DHT22;2213;49.720;7.296;2023-02-15T04:45:22;-0.10;99.90
4399;DHT22;2213;49.720;7.296;2023-02-15T04:47:53;-0.30;99.90
4399;DHT22;2213;49.720;7.296;2023-02-15T04:50:22;-0.30;99.90
4399;DHT22;2213;49.720;7.296;2023-02-15T04:52:52;-0.30;99.90
4399;DHT22;2213;49.720;7.296;2023-02-15T04:55:22;-0.30;99.90
4399;DHT22;2213;49.720;7.296;2023-02-15T04:57:54;-0.30;99.90
4399;DHT22;2213;49.720;7.296;2023-02-15T05:00:25;-0.30;99.90
4399;DHT22;2213;49.720;7.296;2023-02-15T05:02:55;-0.40;99.90
4399;DHT22;2213;49.720;7.296;2023-02-15T05:05:25;-0.40;99.90
4399;DHT22;2213;49.720;7.296;2023-02-15T05:07:55;-0.30;99.90
4399;DHT22;2213;49.720;7.296;2023-02-15T05:10:25;-0.30;99.90
4399;DHT22;2213;49.720;7.296;2023-02-15T05:12:54;-0.20;99.90
4399;DHT22;2213;49.720;7.296;2023-02-15T05:15:24;-0.20;99.90
4399;DHT22;2213;49.720;7.296;2023-02-15T05:17:53;-0.20;99.90
4399;DHT22;2213;49.720;7.296;2023-02-15T05:20:24;-0.30;99.90
4399;DHT22;2213;49.720;7.296;2023-02-15T05:22:54;-0.30;99.90
4399;DHT22;2213;49.720;7.296;2023-02-15T05:25:26;-0.20;99.90
4399;DHT22;2213;49.720;7.296;2023-02-15T05:28:12;-0.20;99.90
4399;DHT22;2213;49.720;7.296;2023-02-15T05:30:57;-0.30;99.90
4399;DHT22;2213;49.720;7.296;2023-02-15T05:33:33;-0.40;99.90
4399;DHT22;2213;49.720;7.296;2023-02-15T05:36:03;-0.50;99.90
4399;DHT22;2213;49.720;7.296;2023-02-15T05:38:34;-0.50;99.90
4399;DHT22;2213;49.720;7.296;2023-02-15T05:41:08;-0.30;99.90
4399;DHT22;2213;49.720;7.296;2023-02-15T05:43:39;-0.30;99.90
4399;DHT22;2213;49.720;7.296;2023-02-15T05:46:08;-0.30;99.90
4399;DHT22;2213;49.720;7.296;2023-02-15T05:48:38;-0.30;99.90
4399;DHT22;2213;49.720;7.296;2023-02-15T05:51:08;-0.30;99.90
4399;DHT22;2213;49.720;7.296;2023-02-15T05:53:40;-0.30;99.90
4399;DHT22;2213;49.720;7.296;2023-02-15T05:56:11;-0.40;99.90
4399;DHT22;2213;49.720;7.296;2023-02-15T05:58:41;-0.40;99.90
4399;DHT22;2213;49.720;7.296;2023-02-15T06:01:12;-0.50;99.90
4399;DHT22;2213;49.720;7.296;2023-02-15T06:03:43;-0.50;99.90
4399;DHT22;2213;49.720;7.296;2023-02-15T06:06:12;-0.40;99.90
4399;DHT22;2213;49.720;7.296;2023-02-15T06:08:42;-0.40;99.90
4399;DHT22;2213;49.720;7.296;2023-02-15T06:11:12;-0.40;99.90
4399;DHT22;2213;49.720;7.296;2023-02-15T06:13:42;-0.60;99.90
4399;DHT22;2213;49.720;7.296;2023-02-15T06:16:12;-0.60;99.90
4399;DHT22;2213;49.720;7.296;2023-02-15T06:18:43;-0.70;99.90
4399;DHT22;2213;49.720;7.296;2023-02-15T06:21:13;-0.60;99.90
4399;DHT22;2213;49.720;7.296;2023-02-15T06:23:42;-0.60;99.90
4399;DHT22;2213;49.720;7.296;2023-02-15T06:26:13;-0.60;99.90
4399;DHT22;2213;49.720;7.296;2023-02-15T06:28:43;-0.60;99.90
4399;DHT22;2213;49.720;7.296;2023-02-15T06:31:12;-0.60;99.90
4399;DHT22;2213;49.720;7.296;2023-02-15T06:33:43;-0.60;99.90
4399;DHT22;2213;49.720;7.296;2023-02-15T06:36:12;-0.60;99.90
4399;DHT22;2213;49.720;7.296;2023-02-15T06:38:43;-0.70;99.90
4399;DHT22;2213;49.720;7.296;2023-02-15T06:41:14;-0.60;99.90
4399;DHT22;2213;49.720;7.296;2023-02-15T06:43:43;-0.70;99.90
4399;DHT22;2213;49.720;7.296;2023-02-15T06:46:13;-0.60;99.90
4399;DHT22;2213;49.720;7.296;2023-02-15T06:48:42;-0.60;99.90
4399;DHT22;2213;49.720;7.296;2023-02-15T06:51:11;-0.50;99.90
4399;DHT22;2213;49.720;7.296;2023-02-15T06:53:41;-0.50;99.90
4399;DHT22;2213;49.720;7.296;2023-02-15T06:56:13;-0.50;99.90
4399;DHT22;2213;49.720;7.296;2023-02-15T06:58:43;-0.50;99.90
4399;DHT22;2213;49.720;7.296;2023-02-15T07:01:13;-0.50;99.90
4399;DHT22;2213;49.720;7.296;2023-02-15T07:03:43;-0.30;99.90
4399;DHT22;2213;49.720;7.296;2023-02-15T07:06:12;-0.20;99.90
4399;DHT22;2213;49.720;7.296;2023-02-15T07:08:42;-0.20;99.90
4399;DHT22;2213;49.720;7.296;2023-02-15T07:11:11;-0.20;99.90
4399;DHT22;2213;49.720;7.296;2023-02-15T07:14:00;0.00;99.90
4399;DHT22;2213;49.720;7.296;2023-02-15T07:16:29;-0.10;99.90
4399;DHT22;2213;49.720;7.296;2023-02-15T07:18:59;-0.20;99.90
4399;DHT22;2213;49.720;7.296;2023-02-15T07:21:28;-0.30;99.90
4399;DHT22;2213;49.720;7.296;2023-02-15T07:23:58;-0.30;99.90
4399;DHT22;2213;49.720;7.296;2023-02-15T07:26:28;-0.40;99.90
4399;DHT22;2213;49.720;7.296;2023-02-15T07:29:00;-0.50;99.90
4399;DHT22;2213;49.720;7.296;2023-02-15T07:31:29;-0.50;99.90
4399;DHT22;2213;49.720;7.296;2023-02-15T07:33:59;-0.40;99.90
4399;DHT22;2213;49.720;7.296;2023-02-15T07:36:30;-0.40;99.90
4399;DHT22;2213;49.720;7.296;2023-02-15T07:39:01;-0.60;99.90
4399;DHT22;2213;49.720;7.296;2023-02-15T07:41:32;-0.50;99.90
4399;DHT22;2213;49.720;7.296;2023-02-15T07:44:02;-0.50;99.90
4399;DHT22;2213;49.720;7.296;2023-02-15T07:46:32;-0.50;99.90
4399;DHT22;2213;49.720;7.296;2023-02-15T07:49:03;-0.60;99.90
4399;DHT22;2213;49.720;7.296;2023-02-15T07:51:34;-0.60;99.90
4399;DHT22;2213;49.720;7.296;2023-02-15T07:54:03;-0.50;99.90
4399;DHT22;2213;49.720;7.296;2023-02-15T07:56:32;-0.40;99.90
4399;DHT22;2213;49.720;7.296;2023-02-15T07:59:05;-0.30;99.90
4399;DHT22;2213;49.720;7.296;2023-02-15T08:01:38;-0.40;99.90
4399;DHT22;2213;49.720;7.296;2023-02-15T08:04:08;-0.20;99.90
4399;DHT22;2213;49.720;7.296;2023-02-15T08:06:38;-0.20;99.90
4399;DHT22;2213;49.720;7.296;2023-02-15T08:09:08;-0.30;99.90
4399;DHT22;2213;49.720;7.296;2023-02-15T08:11:38;-0.30;99.90
4399;DHT22;2213;49.720;7.296;2023-02-15T08:14:11;-0.30;99.90
4399;DHT22;2213;49.720;7.296;2023-02-15T08:16:44;-0.50;99.90
4399;DHT22;2213;49.720;7.296;2023-02-15T08:19:15;-0.40;99.90
4399;DHT22;2213;49.720;7.296;2023-02-15T08:21:48;-0.30;99.90
4399;DHT22;2213;49.720;7.296;2023-02-15T08:24:20;-0.30;99.90
4399;DHT22;2213;49.720;7.296;2023-02-15T08:26:52;-0.20;99.90
4399;DHT22;2213;49.720;7.296;2023-02-15T08:29:24;-0.30;99.90
4399;DHT22;2213;49.720;7.296;2023-02-15T08:31:55;-0.20;99.90
4399;DHT22;2213;49.720;7.296;2023-02-15T08:34:26;-0.20;99.90
4399;DHT22;2213;49.720;7.296;2023-02-15T08:36:58;-0.10;99.90
4399;DHT22;2213;49.720;7.296;2023-02-15T08:39:28;-0.10;99.90
4399;DHT22;2213;49.720;7.296;2023-02-15T08:41:58;0.10;99.90
4399;DHT22;2213;49.720;7.296;2023-02-15T08:44:29;0.00;99.90
4399;DHT22;2213;49.720;7.296;2023-02-15T08:46:59;0.10;99.90
4399;DHT22;2213;49.720;7.296;2023-02-15T08:49:31;0.10;99.90
4399;DHT22;2213;49.720;7.296;2023-02-15T08:52:01;0.10;99.90
4399;DHT22;2213;49.720;7.296;2023-02-15T08:54:31;0.10;99.90
4399;DHT22;2213;49.720;7.296;2023-02-15T08:56:59;0.00;99.90
4399;DHT22;2213;49.720;7.296;2023-02-15T08:59:30;0.00;99.90
4399;DHT22;2213;49.720;7.296;2023-02-15T09:01:59;-0.10;99.90
4399;DHT22;2213;49.720;7.296;2023-02-15T09:04:31;-0.20;99.90
4399;DHT22;2213;49.720;7.296;2023-02-15T09:07:01;-0.10;99.90
4399;DHT22;2213;49.720;7.296;2023-02-15T09:09:32;0.00;99.90
4399;DHT22;2213;49.720;7.296;2023-02-15T09:12:01;0.00;99.90
4399;DHT22;2213;49.720;7.296;2023-02-15T09:14:33;0.00;99.90
4399;DHT22;2213;49.720;7.296;2023-02-15T09:17:04;-0.10;99.90
4399;DHT22;2213;49.720;7.296;2023-02-15T09:19:34;-0.10;99.90
4399;DHT22;2213;49.720;7.296;2023-02-15T09:22:04;-0.10;99.90
4399;DHT22;2213;49.720;7.296;2023-02-15T09:24:34;-0.10;99.90
4399;DHT22;2213;49.720;7.296;2023-02-15T09:27:04;0.20;99.90
4399;DHT22;2213;49.720;7.296;2023-02-15T09:29:38;0.20;99.90
4399;DHT22;2213;49.720;7.296;2023-02-15T09:32:09;0.20;99.90
4399;DHT22;2213;49.720;7.296;2023-02-15T09:34:43;0.20;99.90
4399;DHT22;2213;49.720;7.296;2023-02-15T09:37:13;0.10;99.90
4399;DHT22;2213;49.720;7.296;2023-02-15T09:39:43;0.20;99.90
4399;DHT22;2213;49.720;7.296;2023-02-15T09:42:42;0.30;99.90
4399;DHT22;2213;49.720;7.296;2023-02-15T09:45:32;0.30;99.90
4399;DHT22;2213;49.720;7.296;2023-02-15T09:48:38;0.50;99.90
4399;DHT22;2213;49.720;7.296;2023-02-15T09:51:32;0.60;99.90
4399;DHT22;2213;49.720;7.296;2023-02-15T09:54:48;0.70;99.90
4399;DHT22;2213;49.720;7.296;2023-02-15T09:57:33;0.80;99.90
4399;DHT22;2213;49.720;7.296;2023-02-15T10:00:20;0.80;99.90
4399;DHT22;2213;49.720;7.296;2023-02-15T10:03:13;0.90;99.90
4399;DHT22;2213;49.720;7.296;2023-02-15T10:06:07;0.90;99.90
4399;DHT22;2213;49.720;7.296;2023-02-15T10:09:03;0.90;99.90
4399;DHT22;2213;49.720;7.296;2023-02-15T10:12:02;0.90;99.90
4399;DHT22;2213;49.720;7.296;2023-02-15T10:18:10;1.00;99.90
4399;DHT22;2213;49.720;7.296;2023-02-15T10:20:58;1.10;99.90
4399;DHT22;2213;49.720;7.296;2023-02-15T10:23:46;1.10;99.90
4399;DHT22;2213;49.720;7.296;2023-02-15T10:26:30;1.20;99.90
4399;DHT22;2213;49.720;7.296;2023-02-15T10:29:09;1.10;99.90
4399;DHT22;2213;49.720;7.296;2023-02-15T10:31:50;1.00;99.90
4399;DHT22;2213;49.720;7.296;2023-02-15T10:34:31;1.10;99.90
4399;DHT22;2213;49.720;7.296;2023-02-15T10:37:25;1.30;99.90
4399;DHT22;2213;49.720;7.296;2023-02-15T10:40:11;1.30;99.90
4399;DHT22;2213;49.720;7.296;2023-02-15T10:43:03;1.40;99.90
4399;DHT22;2213;49.720;7.296;2023-02-15T10:45:52;1.40;99.90
4399;DHT22;2213;49.720;7.296;2023-02-15T10:48:55;1.50;99.90
4399;DHT22;2213;49.720;7.296;2023-02-15T10:51:49;1.60;99.90
4399;DHT22;2213;49.720;7.296;2023-02-15T10:54:36;1.60;99.90
4399;DHT22;2213;49.720;7.296;2023-02-15T10:57:20;1.70;99.90
4399;DHT22;2213;49.720;7.296;2023-02-15T11:00:07;1.80;99.90
4399;DHT22;2213;49.720;7.296;2023-02-15T11:02:59;1.80;99.90
4399;DHT22;2213;49.720;7.296;2023-02-15T11:05:46;1.80;99.90
4399;DHT22;2213;49.720;7.296;2023-02-15T11:08:36;1.90;99.90
4399;DHT22;2213;49.720;7.296;2023-02-15T11:11:15;1.90;99.90
4399;DHT22;2213;49.720;7.296;2023-02-15T11:13:52;1.90;99.90
4399;DHT22;2213;49.720;7.296;2023-02-15T11:16:29;1.90;99.90
4399;DHT22;2213;49.720;7.296;2023-02-15T11:19:06;1.90;99.90
4399;DHT22;2213;49.720;7.296;2023-02-15T11:21:43;1.90;99.90
4399;DHT22;2213;49.720;7.296;2023-02-15T11:24:16;1.80;99.90
4399;DHT22;2213;49.720;7.296;2023-02-15T11:26:51;1.80;99.90
4399;DHT22;2213;49.720;7.296;2023-02-15T11:29:27;1.90;99.90
4399;DHT22;2213;49.720;7.296;2023-02-15T11:32:03;1.80;99.90
4399;DHT22;2213;49.720;7.296;2023-02-15T11:34:50;2.00;99.90
4399;DHT22;2213;49.720;7.296;2023-02-15T11:37:29;1.90;99.90
4399;DHT22;2213;49.720;7.296;2023-02-15T11:40:22;1.90;99.90
4399;DHT22;2213;49.720;7.296;2023-02-15T11:42:56;1.90;99.90
4399;DHT22;2213;49.720;7.296;2023-02-15T11:45:28;2.00;99.90
4399;DHT22;2213;49.720;7.296;2023-02-15T11:48:00;2.00;99.90
4399;DHT22;2213;49.720;7.296;2023-02-15T11:50:38;2.00;99.90
4399;DHT22;2213;49.720;7.296;2023-02-15T11:53:12;2.10;99.90
4399;DHT22;2213;49.720;7.296;2023-02-15T11:55:46;2.20;99.90
4399;DHT22;2213;49.720;7.296;2023-02-15T11:58:27;2.20;99.90
4399;DHT22;2213;49.720;7.296;2023-02-15T12:01:04;2.30;99.90
4399;DHT22;2213;49.720;7.296;2023-02-15T12:03:45;2.40;99.90
4399;DHT22;2213;49.720;7.296;2023-02-15T12:06:21;2.40;99.90
4399;DHT22;2213;49.720;7.296;2023-02-15T12:09:03;2.50;99.90
4399;DHT22;2213;49.720;7.296;2023-02-15T12:11:41;2.50;99.90
4399;DHT22;2213;49.720;7.296;2023-02-15T12:14:12;2.60;99.90
4399;DHT22;2213;49.720;7.296;2023-02-15T12:16:45;2.70;99.90
4399;DHT22;2213;49.720;7.296;2023-02-15T12:19:27;2.70;99.90
4399;DHT22;2213;49.720;7.296;2023-02-15T12:22:01;2.80;99.90
4399;DHT22;2213;49.720;7.296;2023-02-15T12:24:37;2.90;99.90
4399;DHT22;2213;49.720;7.296;2023-02-15T12:27:17;2.90;99.90
4399;DHT22;2213;49.720;7.296;2023-02-15T12:29:50;2.90;99.90
4399;DHT22;2213;49.720;7.296;2023-02-15T12:32:24;3.00;99.90
4399;DHT22;2213;49.720;7.296;2023-02-15T12:34:59;3.00;99.90
4399;DHT22;2213;49.720;7.296;2023-02-15T12:37:36;3.10;99.90
4399;DHT22;2213;49.720;7.296;2023-02-15T12:40:20;3.10;99.90
4399;DHT22;2213;49.720;7.296;2023-02-15T12:42:53;3.20;99.90
4399;DHT22;2213;49.720;7.296;2023-02-15T12:45:25;3.20;99.90
4399;DHT22;2213;49.720;7.296;2023-02-15T12:48:13;3.30;99.90
4399;DHT22;2213;49.720;7.296;2023-02-15T12:50:45;3.40;99.90
4399;DHT22;2213;49.720;7.296;2023-02-15T12:53:32;3.40;99.90
4399;DHT22;2213;49.720;7.296;2023-02-15T12:56:04;3.50;99.90
4399;DHT22;2213;49.720;7.296;2023-02-15T12:58:37;3.50;99.90
4399;DHT22;2213;49.720;7.296;2023-02-15T13:01:12;3.60;99.90
4399;DHT22;2213;49.720;7.296;2023-02-15T13:03:57;3.60;99.90
4399;DHT22;2213;49.720;7.296;2023-02-15T13:06:34;3.70;99.90
4399;DHT22;2213;49.720;7.296;2023-02-15T13:09:11;3.80;99.90
4399;DHT22;2213;49.720;7.296;2023-02-15T13:11:44;3.80;99.90
4399;DHT22;2213;49.720;7.296;2023-02-15T13:14:19;3.90;99.90
4399;DHT22;2213;49.720;7.296;2023-02-15T13:16:52;4.00;99.90
4399;DHT22;2213;49.720;7.296;2023-02-15T13:19:33;4.00;99.90
4399;DHT22;2213;49.720;7.296;2023-02-15T13:22:07;4.10;99.90
4399;DHT22;2213;49.720;7.296;2023-02-15T13:24:46;4.20;99.90
4399;DHT22;2213;49.720;7.296;2023-02-15T13:27:23;4.20;99.90
4399;DHT22;2213;49.720;7.296;2023-02-15T13:30:02;4.30;99.90
4399;DHT22;2213;49.720;7.296;2023-02-15T13:32:41;4.40;99.90
4399;DHT22;2213;49.720;7.296;2023-02-15T13:35:15;4.50;99.90
4399;DHT22;2213;49.720;7.296;2023-02-15T13:38:30;4.50;99.90
4399;DHT22;2213;49.720;7.296;2023-02-15T13:41:25;4.60;99.90
4399;DHT22;2213;49.720;7.296;2023-02-15T13:44:12;4.50;99.90
4399;DHT22;2213;49.720;7.296;2023-02-15T13:47:02;4.70;99.90
4399;DHT22;2213;49.720;7.296;2023-02-15T13:49:52;4.70;99.90
4399;DHT22;2213;49.720;7.296;2023-02-15T13:52:34;4.70;99.90
4399;DHT22;2213;49.720;7.296;2023-02-15T13:55:30;4.90;99.90
4399;DHT22;2213;49.720;7.296;2023-02-15T14:01:42;5.00;99.90
4399;DHT22;2213;49.720;7.296;2023-02-15T14:04:39;5.10;99.90
4399;DHT22;2213;49.720;7.296;2023-02-15T14:07:33;5.20;99.90
4399;DHT22;2213;49.720;7.296;2023-02-15T14:10:42;5.20;99.90
4399;DHT22;2213;49.720;7.296;2023-02-15T14:13:39;5.20;99.90
4399;DHT22;2213;49.720;7.296;2023-02-15T14:16:36;5.20;99.90
4399;DHT22;2213;49.720;7.296;2023-02-15T14:19:37;5.30;99.90
4399;DHT22;2213;49.720;7.296;2023-02-15T14:22:19;5.40;99.90
4399;DHT22;2213;49.720;7.296;2023-02-15T14:25:14;5.30;99.90
4399;DHT22;2213;49.720;7.296;2023-02-15T14:27:56;5.40;99.90
4399;DHT22;2213;49.720;7.296;2023-02-15T14:30:32;5.40;99.90
4399;DHT22;2213;49.720;7.296;2023-02-15T14:33:07;5.40;99.90
4399;DHT22;2213;49.720;7.296;2023-02-15T14:35:55;5.50;99.90
4399;DHT22;2213;49.720;7.296;2023-02-15T14:38:39;5.70;99.90
4399;DHT22;2213;49.720;7.296;2023-02-15T14:41:21;6.00;99.90
4399;DHT22;2213;49.720;7.296;2023-02-15T14:44:01;6.40;99.90
4399;DHT22;2213;49.720;7.296;2023-02-15T14:46:41;6.50;99.90
4399;DHT22;2213;49.720;7.296;2023-02-15T14:49:17;6.80;99.90
4399;DHT22;2213;49.720;7.296;2023-02-15T14:52:00;6.80;99.90
4399;DHT22;2213;49.720;7.296;2023-02-15T14:54:57;6.80;99.90
4399;DHT22;2213;49.720;7.296;2023-02-15T14:57:32;6.70;99.90
4399;DHT22;2213;49.720;7.296;2023-02-15T15:00:30;6.50;99.90
4399;DHT22;2213;49.720;7.296;2023-02-15T15:03:12;6.40;99.90
4399;DHT22;2213;49.720;7.296;2023-02-15T15:05:51;6.30;99.90
4399;DHT22;2213;49.720;7.296;2023-02-15T15:08:29;6.30;99.90
4399;DHT22;2213;49.720;7.296;2023-02-15T15:11:43;6.40;99.90
4399;DHT22;2213;49.720;7.296;2023-02-15T15:14:44;6.40;99.90
4399;DHT22;2213;49.720;7.296;2023-02-15T15:17:39;6.40;99.90
4399;DHT22;2213;49.720;7.296;2023-02-15T15:20:40;6.20;99.90
4399;DHT22;2213;49.720;7.296;2023-02-15T15:23:39;6.20;99.90
4399;DHT22;2213;49.720;7.296;2023-02-15T15:26:45;6.30;99.90
4399;DHT22;2213;49.720;7.296;2023-02-15T15:29:40;6.30;99.90
4399;DHT22;2213;49.720;7.296;2023-02-15T15:32:11;6.10;99.90
4399;DHT22;2213;49.720;7.296;2023-02-15T15:35:03;6.00;99.90
4399;DHT22;2213;49.720;7.296;2023-02-15T15:38:22;5.90;99.90
4399;DHT22;2213;49.720;7.296;2023-02-15T15:41:18;5.70;99.90
4399;DHT22;2213;49.720;7.296;2023-02-15T15:44:07;5.70;99.90
4399;DHT22;2213;49.720;7.296;2023-02-15T15:47:11;5.70;99.90
4399;DHT22;2213;49.720;7.296;2023-02-15T15:49:50;5.60;99.90
4399;DHT22;2213;49.720;7.296;2023-02-15T15:52:26;5.60;99.90
4399;DHT22;2213;49.720;7.296;2023-02-15T15:55:03;5.50;99.90
4399;DHT22;2213;49.720;7.296;2023-02-15T15:57:45;5.40;99.90
4399;DHT22;2213;49.720;7.296;2023-02-15T16:00:40;5.30;99.90
4399;DHT22;2213;49.720;7.296;2023-02-15T16:03:15;5.20;99.90
4399;DHT22;2213;49.720;7.296;2023-02-15T16:05:49;5.20;99.90
4399;DHT22;2213;49.720;7.296;2023-02-15T16:08:30;5.00;99.90
4399;DHT22;2213;49.720;7.296;2023-02-15T16:11:10;4.80;99.90
4399;DHT22;2213;49.720;7.296;2023-02-15T16:13:44;4.70;99.90
4399;DHT22;2213;49.720;7.296;2023-02-15T16:16:19;4.50;99.90
4399;DHT22;2213;49.720;7.296;2023-02-15T16:18:50;4.60;99.90
4399;DHT22;2213;49.720;7.296;2023-02-15T16:21:23;4.50;99.90
4399;DHT22;2213;49.720;7.296;2023-02-15T16:24:17;4.40;99.90
4399;DHT22;2213;49.720;7.296;2023-02-15T16:27:17;4.40;99.90
4399;DHT22;2213;49.720;7.296;2023-02-15T16:29:56;4.40;99.90
4399;DHT22;2213;49.720;7.296;2023-02-15T16:32:27;4.40;99.90
4399;DHT22;2213;49.720;7.296;2023-02-15T16:34:58;4.30;99.90
4399;DHT22;2213;49.720;7.296;2023-02-15T16:37:32;4.20;99.90
4399;DHT22;2213;49.720;7.296;2023-02-15T16:40:04;4.10;99.90
4399;DHT22;2213;49.720;7.296;2023-02-15T16:42:37;4.10;99.90
4399;DHT22;2213;49.720;7.296;2023-02-15T16:45:15;4.00;99.90
4399;DHT22;2213;49.720;7.296;2023-02-15T16:47:50;4.00;99.90
4399;DHT22;2213;49.720;7.296;2023-02-15T16:50:24;3.80;99.90
4399;DHT22;2213;49.720;7.296;2023-02-15T16:53:00;3.70;99.90
4399;DHT22;2213;49.720;7.296;2023-02-15T16:55:37;3.70;99.90
4399;DHT22;2213;49.720;7.296;2023-02-15T16:58:14;3.40;99.90
4399;DHT22;2213;49.720;7.296;2023-02-15T17:00:47;3.40;99.90
4399;DHT22;2213;49.720;7.296;2023-02-15T17:03:22;3.30;99.90
4399;DHT22;2213;49.720;7.296;2023-02-15T17:05:55;3.10;99.90
4399;DHT22;2213;49.720;7.296;2023-02-15T17:08:27;3.10;99.90
4399;DHT22;2213;49.720;7.296;2023-02-15T17:11:14;3.00;99.90
4399;DHT22;2213;49.720;7.296;2023-02-15T17:14:12;3.00;99.90
4399;DHT22;2213;49.720;7.296;2023-02-15T17:16:50;3.00;99.90
4399;DHT22;2213;49.720;7.296;2023-02-15T17:19:25;3.00;99.90
4399;DHT22;2213;49.720;7.296;2023-02-15T17:21:57;2.80;99.90
4399;DHT22;2213;49.720;7.296;2023-02-15T17:24:34;2.90;99.90
4399;DHT22;2213;49.720;7.296;2023-02-15T17:27:11;3.10;99.90
4399;DHT22;2213;49.720;7.296;2023-02-15T17:29:46;2.80;99.90
4399;DHT22;2213;49.720;7.296;2023-02-15T17:32:22;2.80;99.90